Lone Oak, Kentucky
Current Conditions -  °F | °C
As of 11:53 AM on Monday 26 Jan 2015 (Local Time) from KPAH Reporting Station
Broken Clouds Broken Clouds  
Wind Chill: 32°   Ceiling: 2400
Heat Index: 37°   Visibility: 10mi
Dew Point: 26°   Wind: 7mph
Humidity: 65%   Direction: 300°WNW
Pressure: 30.02"   Gusts: NA
Location:  37.0331°N, 88.716°W
Report Text: KPAH 261753Z 30006KT 10SM BKN024 03/M03 A3002 RMK AO2 SLP169 T00281033 10033 21017 58009
Loading
Personal Weather Stations






























Interactive Weather Map New forecast layout! Learn more

10-Day Weather Forecast

Advertisements
Track Severe Weather on mobile